Aeroporto :
LOGIN :

Iscrizione | Disclaimer

   EN    FR    IT 

 










Sommario :    VFR   VFR Marginale   IFR   IFR Intensivo   IFR Molto Intensivo
Visibilità : 
Base nubi : 
>= 8 km
>= 3000ft
5 / 8 km
1000 / 3000 ft
1500m / 5 km
500 / 1000 ft
800 / 1500m
200 / 500 ft
< 800m
< 200 ft
Simboli :   Temporali  Nebbia  Neve Forte  Precipitazioni Forti  Vento > 20 kt
SIGMETs :   Varie  Temporali  Ghiacco  Turbolenza  Onda orograficha  Ceneri Vulcaniche






- Altitudine del aeroporto : 2835 ft
- Codice IATA : ISE


LTFC - Suleyman Demirel

ULTIMO METAR :
  • 021150Z 18017KT 9999 BKN025 14/05 Q1008 RMK RWY23 19014KT

METARs OBSOLETI :
  • 021120Z 17015KT 9999 BKN025 15/05 Q1008 RMK RWY23 16014KT
  • 021050Z 17019KT 9999 BKN025 14/04 Q1008 RMK RWY23 18016KT
  • 021020Z 18013KT 9999 BKN025 14/05 Q1009 RMK RWY23 18014KT
  • 020950Z 21012KT 170V240 9999 BKN035 14/04 Q1009 RMK RWY23 20012KT
  • 020920Z 23007KT 170V260 9999 BKN035 13/04 Q1009 RMK RWY23 21008KT 170V240

TAF TAF LTFC
Valido dal 02 a 12 ore il 03 a 12 ore UTC


021040Z 0212/0312 20015KT 9999 BKN030
TEMPO 0212/0216 VRB15G30KT -TSRA FEW020CB BKN030
BECMG 0216/0218 34008KT
TEMPO 0218/0222 -SHRA
BECMG 0306/0309 SCT030



MetMap, La meteo Aeronautica in un colpo d'occhio ! - Copyright ORBIFLY Dicembre 2007 - Disclaimer

ORBIFLY MET'MAP TEAM :

Programmazione e sviluppo : Alexandra Zaïnal
Concezione : Baudouin d'Aumeries
Aiuto per la programmazione : Marc-Olivier Méhu
Supporto tecnico e logistico : Manuel Goepfert
Aiuto per la traduzione : Arnaldo La Scala

Contatto : metmap@orbifly.com




FONTI E CREDITI :

   NOAA